sensor_id;sensor_type;location;lat;lon;timestamp;P1;durP1;ratioP1;P2;durP2;ratioP2
55114;SDS011;41010;53.252;5.786;2022-07-23T00:00:07;6.88;;;3.60;;
55114;SDS011;41010;53.252;5.786;2022-07-23T00:02:36;6.38;;;3.75;;
55114;SDS011;41010;53.252;5.786;2022-07-23T00:05:03;8.52;;;3.88;;
55114;SDS011;41010;53.252;5.786;2022-07-23T00:07:31;7.85;;;4.15;;
55114;SDS011;41010;53.252;5.786;2022-07-23T00:09:58;7.65;;;3.50;;
55114;SDS011;41010;53.252;5.786;2022-07-23T00:12:25;6.68;;;3.88;;
55114;SDS011;41010;53.252;5.786;2022-07-23T00:14:53;6.78;;;4.05;;
55114;SDS011;41010;53.252;5.786;2022-07-23T00:17:20;12.20;;;3.67;;
55114;SDS011;41010;53.252;5.786;2022-07-23T00:19:48;9.25;;;3.88;;
55114;SDS011;41010;53.252;5.786;2022-07-23T00:22:16;6.95;;;3.95;;
55114;SDS011;41010;53.252;5.786;2022-07-23T00:24:43;9.77;;;5.18;;
55114;SDS011;41010;53.252;5.786;2022-07-23T00:27:10;5.25;;;4.03;;
55114;SDS011;41010;53.252;5.786;2022-07-23T00:29:37;9.20;;;4.15;;
55114;SDS011;41010;53.252;5.786;2022-07-23T00:32:05;8.75;;;4.30;;
55114;SDS011;41010;53.252;5.786;2022-07-23T00:34:32;8.63;;;4.03;;
55114;SDS011;41010;53.252;5.786;2022-07-23T00:37:00;6.40;;;4.82;;
55114;SDS011;41010;53.252;5.786;2022-07-23T00:39:28;9.07;;;4.32;;
55114;SDS011;41010;53.252;5.786;2022-07-23T00:41:55;8.80;;;4.38;;
55114;SDS011;41010;53.252;5.786;2022-07-23T00:44:22;9.02;;;4.43;;
55114;SDS011;41010;53.252;5.786;2022-07-23T00:46:50;7.10;;;4.43;;
55114;SDS011;41010;53.252;5.786;2022-07-23T00:49:19;8.95;;;4.55;;
55114;SDS011;41010;53.252;5.786;2022-07-23T00:51:46;8.18;;;4.75;;
55114;SDS011;41010;53.252;5.786;2022-07-23T00:54:15;8.90;;;4.55;;
55114;SDS011;41010;53.252;5.786;2022-07-23T00:56:43;7.65;;;4.55;;
55114;SDS011;41010;53.252;5.786;2022-07-23T00:59:10;9.32;;;4.80;;
55114;SDS011;41010;53.252;5.786;2022-07-23T01:01:37;7.53;;;5.05;;
55114;SDS011;41010;53.252;5.786;2022-07-23T01:04:05;10.30;;;4.95;;
55114;SDS011;41010;53.252;5.786;2022-07-23T01:06:33;10.02;;;5.78;;
55114;SDS011;41010;53.252;5.786;2022-07-23T01:09:01;9.60;;;5.07;;
55114;SDS011;41010;53.252;5.786;2022-07-23T01:11:30;7.28;;;5.07;;
55114;SDS011;41010;53.252;5.786;2022-07-23T01:13:58;10.93;;;5.30;;
55114;SDS011;41010;53.252;5.786;2022-07-23T01:16:25;12.52;;;5.90;;
55114;SDS011;41010;53.252;5.786;2022-07-23T01:18:52;12.50;;;5.75;;
55114;SDS011;41010;53.252;5.786;2022-07-23T01:21:19;10.38;;;5.70;;
55114;SDS011;41010;53.252;5.786;2022-07-23T01:23:48;12.43;;;5.93;;
55114;SDS011;41010;53.252;5.786;2022-07-23T01:26:15;9.35;;;5.13;;
55114;SDS011;41010;53.252;5.786;2022-07-23T01:28:43;8.80;;;5.13;;
55114;SDS011;41010;53.252;5.786;2022-07-23T01:31:10;8.50;;;5.07;;
55114;SDS011;41010;53.252;5.786;2022-07-23T01:33:37;7.85;;;5.13;;
55114;SDS011;41010;53.252;5.786;2022-07-23T01:36:05;9.85;;;5.00;;
55114;SDS011;41010;53.252;5.786;2022-07-23T01:38:32;6.00;;;5.03;;
55114;SDS011;41010;53.252;5.786;2022-07-23T01:41:01;8.63;;;5.50;;
55114;SDS011;41010;53.252;5.786;2022-07-23T01:43:28;9.30;;;4.80;;
55114;SDS011;41010;53.252;5.786;2022-07-23T01:45:55;10.77;;;5.00;;
55114;SDS011;41010;53.252;5.786;2022-07-23T01:48:22;12.20;;;5.38;;
55114;SDS011;41010;53.252;5.786;2022-07-23T01:50:50;10.73;;;5.28;;
55114;SDS011;41010;53.252;5.786;2022-07-23T01:53:17;7.15;;;5.05;;
55114;SDS011;41010;53.252;5.786;2022-07-23T01:55:44;8.77;;;4.82;;
55114;SDS011;41010;53.252;5.786;2022-07-23T01:58:13;15.77;;;5.38;;
55114;SDS011;41010;53.252;5.786;2022-07-23T02:00:40;7.47;;;4.43;;
55114;SDS011;41010;53.252;5.786;2022-07-23T02:03:07;10.77;;;5.50;;
55114;SDS011;41010;53.252;5.786;2022-07-23T02:05:34;7.13;;;4.72;;
55114;SDS011;41010;53.252;5.786;2022-07-23T02:08:02;9.80;;;5.30;;
55114;SDS011;41010;53.252;5.786;2022-07-23T02:10:29;8.80;;;4.97;;
55114;SDS011;41010;53.252;5.786;2022-07-23T02:12:56;7.72;;;4.88;;
55114;SDS011;41010;53.252;5.786;2022-07-23T02:15:25;10.73;;;5.10;;
55114;SDS011;41010;53.252;5.786;2022-07-23T02:17:53;8.50;;;4.70;;
55114;SDS011;41010;53.252;5.786;2022-07-23T02:20:20;8.10;;;5.10;;
55114;SDS011;41010;53.252;5.786;2022-07-23T02:22:48;10.57;;;5.00;;
55114;SDS011;41010;53.252;5.786;2022-07-23T02:25:15;7.25;;;4.53;;
55114;SDS011;41010;53.252;5.786;2022-07-23T02:27:43;8.23;;;4.53;;
55114;SDS011;41010;53.252;5.786;2022-07-23T02:30:10;11.23;;;5.47;;
55114;SDS011;41010;53.252;5.786;2022-07-23T02:32:39;11.45;;;5.35;;
55114;SDS011;41010;53.252;5.786;2022-07-23T02:35:06;8.15;;;5.10;;
55114;SDS011;41010;53.252;5.786;2022-07-23T02:37:33;7.28;;;5.40;;
55114;SDS011;41010;53.252;5.786;2022-07-23T02:40:00;12.32;;;5.30;;
55114;SDS011;41010;53.252;5.786;2022-07-23T02:42:28;8.68;;;5.63;;
55114;SDS011;41010;53.252;5.786;2022-07-23T02:44:55;12.40;;;5.97;;
55114;SDS011;41010;53.252;5.786;2022-07-23T02:47:22;10.02;;;5.15;;
55114;SDS011;41010;53.252;5.786;2022-07-23T02:49:51;10.13;;;5.07;;
55114;SDS011;41010;53.252;5.786;2022-07-23T02:52:18;9.75;;;5.43;;
55114;SDS011;41010;53.252;5.786;2022-07-23T02:54:45;8.07;;;5.40;;
55114;SDS011;41010;53.252;5.786;2022-07-23T02:57:12;9.95;;;5.57;;
55114;SDS011;41010;53.252;5.786;2022-07-23T02:59:39;10.15;;;5.32;;
55114;SDS011;41010;53.252;5.786;2022-07-23T03:02:07;8.13;;;5.53;;
55114;SDS011;41010;53.252;5.786;2022-07-23T03:04:34;10.82;;;5.55;;
55114;SDS011;41010;53.252;5.786;2022-07-23T03:07:02;7.72;;;5.25;;
55114;SDS011;41010;53.252;5.786;2022-07-23T03:09:30;10.70;;;5.40;;
55114;SDS011;41010;53.252;5.786;2022-07-23T03:11:57;12.35;;;5.68;;
55114;SDS011;41010;53.252;5.786;2022-07-23T03:14:24;8.63;;;5.57;;
55114;SDS011;41010;53.252;5.786;2022-07-23T03:16:52;12.85;;;5.80;;
55114;SDS011;41010;53.252;5.786;2022-07-23T03:19:20;8.63;;;5.03;;
55114;SDS011;41010;53.252;5.786;2022-07-23T03:21:47;7.88;;;4.60;;
55114;SDS011;41010;53.252;5.786;2022-07-23T03:24:15;11.52;;;4.55;;
55114;SDS011;41010;53.252;5.786;2022-07-23T03:26:43;9.88;;;4.43;;
55114;SDS011;41010;53.252;5.786;2022-07-23T03:29:10;6.82;;;4.88;;
55114;SDS011;41010;53.252;5.786;2022-07-23T03:31:38;9.68;;;5.00;;
55114;SDS011;41010;53.252;5.786;2022-07-23T03:34:05;10.13;;;4.72;;
55114;SDS011;41010;53.252;5.786;2022-07-23T03:36:32;8.65;;;4.85;;
55114;SDS011;41010;53.252;5.786;2022-07-23T03:38:59;11.80;;;4.88;;
55114;SDS011;41010;53.252;5.786;2022-07-23T03:41:28;11.27;;;4.82;;
55114;SDS011;41010;53.252;5.786;2022-07-23T03:43:55;8.38;;;4.75;;
55114;SDS011;41010;53.252;5.786;2022-07-23T03:46:22;7.93;;;4.65;;
55114;SDS011;41010;53.252;5.786;2022-07-23T03:48:49;9.38;;;4.70;;
55114;SDS011;41010;53.252;5.786;2022-07-23T03:51:18;9.20;;;4.45;;
55114;SDS011;41010;53.252;5.786;2022-07-23T03:53:45;8.40;;;4.30;;
55114;SDS011;41010;53.252;5.786;2022-07-23T03:56:14;6.10;;;4.20;;
55114;SDS011;41010;53.252;5.786;2022-07-23T03:58:42;7.10;;;4.65;;
55114;SDS011;41010;53.252;5.786;2022-07-23T04:01:10;7.13;;;3.92;;
55114;SDS011;41010;53.252;5.786;2022-07-23T04:03:38;7.82;;;4.60;;
55114;SDS011;41010;53.252;5.786;2022-07-23T04:06:05;7.45;;;4.80;;
55114;SDS011;41010;53.252;5.786;2022-07-23T04:08:33;8.35;;;4.10;;
55114;SDS011;41010;53.252;5.786;2022-07-23T04:11:00;6.22;;;4.72;;
55114;SDS011;41010;53.252;5.786;2022-07-23T04:13:27;5.82;;;3.85;;
55114;SDS011;41010;53.252;5.786;2022-07-23T04:15:56;9.25;;;4.72;;
55114;SDS011;41010;53.252;5.786;2022-07-23T04:18:23;7.45;;;4.57;;
55114;SDS011;41010;53.252;5.786;2022-07-23T04:20:50;8.73;;;4.50;;
55114;SDS011;41010;53.252;5.786;2022-07-23T04:23:18;7.88;;;4.50;;
55114;SDS011;41010;53.252;5.786;2022-07-23T04:25:45;6.75;;;4.25;;
55114;SDS011;41010;53.252;5.786;2022-07-23T04:28:13;7.10;;;4.55;;
55114;SDS011;41010;53.252;5.786;2022-07-23T04:30:40;7.95;;;4.78;;
55114;SDS011;41010;53.252;5.786;2022-07-23T04:33:08;6.53;;;4.30;;
55114;SDS011;41010;53.252;5.786;2022-07-23T04:35:35;9.38;;;4.40;;
55114;SDS011;41010;53.252;5.786;2022-07-23T04:38:03;9.40;;;4.60;;
55114;SDS011;41010;53.252;5.786;2022-07-23T04:40:31;8.95;;;4.53;;
55114;SDS011;41010;53.252;5.786;2022-07-23T04:42:58;7.88;;;4.00;;
55114;SDS011;41010;53.252;5.786;2022-07-23T04:45:25;8.95;;;4.90;;
55114;SDS011;41010;53.252;5.786;2022-07-23T04:47:52;8.20;;;3.50;;
55114;SDS011;41010;53.252;5.786;2022-07-23T04:50:22;6.68;;;3.70;;
55114;SDS011;41010;53.252;5.786;2022-07-23T04:52:49;10.43;;;4.13;;
55114;SDS011;41010;53.252;5.786;2022-07-23T04:55:16;7.20;;;3.85;;
55114;SDS011;41010;53.252;5.786;2022-07-23T04:57:44;6.47;;;3.78;;
55114;SDS011;41010;53.252;5.786;2022-07-23T05:00:11;7.70;;;3.70;;
55114;SDS011;41010;53.252;5.786;2022-07-23T05:02:38;8.90;;;3.92;;
55114;SDS011;41010;53.252;5.786;2022-07-23T05:05:06;7.93;;;3.75;;
55114;SDS011;41010;53.252;5.786;2022-07-23T05:07:35;7.15;;;3.50;;
55114;SDS011;41010;53.252;5.786;2022-07-23T05:10:02;7.28;;;3.10;;
55114;SDS011;41010;53.252;5.786;2022-07-23T05:12:29;6.45;;;3.13;;
55114;SDS011;41010;53.252;5.786;2022-07-23T05:14:57;4.80;;;2.75;;
55114;SDS011;41010;53.252;5.786;2022-07-23T05:17:25;4.35;;;2.85;;
55114;SDS011;41010;53.252;5.786;2022-07-23T05:19:52;6.53;;;2.17;;
55114;SDS011;41010;53.252;5.786;2022-07-23T05:22:19;7.00;;;2.10;;
55114;SDS011;41010;53.252;5.786;2022-07-23T05:24:48;7.55;;;2.42;;
55114;SDS011;41010;53.252;5.786;2022-07-23T05:27:15;4.60;;;2.10;;
55114;SDS011;41010;53.252;5.786;2022-07-23T05:29:42;4.88;;;2.13;;
55114;SDS011;41010;53.252;5.786;2022-07-23T05:32:09;5.22;;;2.10;;
55114;SDS011;41010;53.252;5.786;2022-07-23T05:34:36;4.72;;;2.20;;
55114;SDS011;41010;53.252;5.786;2022-07-23T05:37:04;4.95;;;2.20;;
55114;SDS011;41010;53.252;5.786;2022-07-23T05:39:31;7.57;;;2.30;;
55114;SDS011;41010;53.252;5.786;2022-07-23T05:42:00;6.68;;;2.10;;
55114;SDS011;41010;53.252;5.786;2022-07-23T05:44:27;7.38;;;2.30;;
55114;SDS011;41010;53.252;5.786;2022-07-23T05:46:54;8.55;;;2.10;;
55114;SDS011;41010;53.252;5.786;2022-07-23T05:49:21;6.88;;;2.25;;
55114;SDS011;41010;53.252;5.786;2022-07-23T05:51:48;7.32;;;1.90;;
55114;SDS011;41010;53.252;5.786;2022-07-23T05:54:16;2.88;;;1.63;;
55114;SDS011;41010;53.252;5.786;2022-07-23T05:56:43;7.95;;;1.70;;
55114;SDS011;41010;53.252;5.786;2022-07-23T05:59:11;3.40;;;1.50;;
55114;SDS011;41010;53.252;5.786;2022-07-23T06:01:39;4.18;;;1.40;;
55114;SDS011;41010;53.252;5.786;2022-07-23T06:04:07;3.85;;;1.23;;
55114;SDS011;41010;53.252;5.786;2022-07-23T06:06:34;3.97;;;1.30;;
55114;SDS011;41010;53.252;5.786;2022-07-23T06:09:01;3.28;;;1.00;;
55114;SDS011;41010;53.252;5.786;2022-07-23T06:11:28;3.50;;;0.80;;
55114;SDS011;41010;53.252;5.786;2022-07-23T06:13:56;4.07;;;0.98;;
55114;SDS011;41010;53.252;5.786;2022-07-23T06:16:24;2.70;;;0.70;;
55114;SDS011;41010;53.252;5.786;2022-07-23T06:18:51;2.63;;;0.70;;
55114;SDS011;41010;53.252;5.786;2022-07-23T06:21:19;5.15;;;1.00;;
55114;SDS011;41010;53.252;5.786;2022-07-23T06:23:46;2.60;;;0.80;;
55114;SDS011;41010;53.252;5.786;2022-07-23T06:26:13;1.48;;;0.70;;
55114;SDS011;41010;53.252;5.786;2022-07-23T06:28:40;4.05;;;0.50;;
55114;SDS011;41010;53.252;5.786;2022-07-23T06:31:07;4.47;;;0.60;;
55114;SDS011;41010;53.252;5.786;2022-07-23T06:33:36;2.35;;;0.55;;
55114;SDS011;41010;53.252;5.786;2022-07-23T06:36:03;2.17;;;0.50;;
55114;SDS011;41010;53.252;5.786;2022-07-23T06:38:30;1.83;;;0.50;;
55114;SDS011;41010;53.252;5.786;2022-07-23T06:40:58;1.15;;;0.52;;
55114;SDS011;41010;53.252;5.786;2022-07-23T06:43:25;1.17;;;0.40;;
55114;SDS011;41010;53.252;5.786;2022-07-23T06:45:52;4.78;;;0.60;;
55114;SDS011;41010;53.252;5.786;2022-07-23T06:48:19;3.78;;;0.50;;
55114;SDS011;41010;53.252;5.786;2022-07-23T06:50:49;2.72;;;0.50;;
55114;SDS011;41010;53.252;5.786;2022-07-23T06:53:17;2.35;;;0.50;;
55114;SDS011;41010;53.252;5.786;2022-07-23T06:55:44;1.58;;;0.60;;
55114;SDS011;41010;53.252;5.786;2022-07-23T06:58:11;5.15;;;0.50;;
55114;SDS011;41010;53.252;5.786;2022-07-23T07:00:39;2.30;;;0.60;;
55114;SDS011;41010;53.252;5.786;2022-07-23T07:03:06;1.45;;;0.38;;
55114;SDS011;41010;53.252;5.786;2022-07-23T07:05:34;3.30;;;0.50;;
55114;SDS011;41010;53.252;5.786;2022-07-23T07:08:02;5.35;;;0.80;;
55114;SDS011;41010;53.252;5.786;2022-07-23T07:10:30;4.75;;;0.60;;
55114;SDS011;41010;53.252;5.786;2022-07-23T07:12:57;2.70;;;0.50;;
55114;SDS011;41010;53.252;5.786;2022-07-23T07:15:24;0.95;;;0.40;;
55114;SDS011;41010;53.252;5.786;2022-07-23T07:17:51;5.28;;;0.55;;
55114;SDS011;41010;53.252;5.786;2022-07-23T07:20:18;2.08;;;0.40;;
55114;SDS011;41010;53.252;5.786;2022-07-23T07:22:46;1.55;;;0.52;;
55114;SDS011;41010;53.252;5.786;2022-07-23T07:25:14;2.10;;;0.60;;
55114;SDS011;41010;53.252;5.786;2022-07-23T07:27:42;5.88;;;0.50;;
55114;SDS011;41010;53.252;5.786;2022-07-23T07:30:10;3.05;;;0.57;;
55114;SDS011;41010;53.252;5.786;2022-07-23T07:32:37;3.45;;;0.73;;
55114;SDS011;41010;53.252;5.786;2022-07-23T07:35:05;2.55;;;0.70;;
55114;SDS011;41010;53.252;5.786;2022-07-23T07:37:32;1.17;;;0.57;;
55114;SDS011;41010;53.252;5.786;2022-07-23T07:39:59;2.15;;;0.68;;
55114;SDS011;41010;53.252;5.786;2022-07-23T07:42:28;2.83;;;0.50;;
55114;SDS011;41010;53.252;5.786;2022-07-23T07:44:57;1.42;;;0.50;;
55114;SDS011;41010;53.252;5.786;2022-07-23T07:47:24;2.40;;;0.70;;
55114;SDS011;41010;53.252;5.786;2022-07-23T07:49:51;4.82;;;0.75;;
55114;SDS011;41010;53.252;5.786;2022-07-23T07:52:19;4.05;;;0.70;;
55114;SDS011;41010;53.252;5.786;2022-07-23T07:54:46;4.32;;;0.60;;
55114;SDS011;41010;53.252;5.786;2022-07-23T07:57:13;2.88;;;0.60;;
55114;SDS011;41010;53.252;5.786;2022-07-23T07:59:41;3.38;;;0.70;;
55114;SDS011;41010;53.252;5.786;2022-07-23T08:02:09;2.28;;;0.47;;
55114;SDS011;41010;53.252;5.786;2022-07-23T08:04:36;1.95;;;0.57;;
55114;SDS011;41010;53.252;5.786;2022-07-23T08:07:03;1.55;;;0.60;;
55114;SDS011;41010;53.252;5.786;2022-07-23T08:09:30;6.03;;;0.93;;
55114;SDS011;41010;53.252;5.786;2022-07-23T08:11:58;3.13;;;0.50;;
55114;SDS011;41010;53.252;5.786;2022-07-23T08:14:25;1.80;;;0.60;;
55114;SDS011;41010;53.252;5.786;2022-07-23T08:16:53;9.13;;;0.68;;
55114;SDS011;41010;53.252;5.786;2022-07-23T08:19:21;6.03;;;0.80;;
55114;SDS011;41010;53.252;5.786;2022-07-23T08:21:48;2.95;;;0.60;;
55114;SDS011;41010;53.252;5.786;2022-07-23T08:24:15;2.10;;;0.75;;
55114;SDS011;41010;53.252;5.786;2022-07-23T08:26:42;3.92;;;0.80;;
55114;SDS011;41010;53.252;5.786;2022-07-23T08:29:10;3.35;;;0.60;;
55114;SDS011;41010;53.252;5.786;2022-07-23T08:31:37;1.98;;;0.70;;
55114;SDS011;41010;53.252;5.786;2022-07-23T08:34:06;2.78;;;0.70;;
55114;SDS011;41010;53.252;5.786;2022-07-23T08:36:33;5.35;;;0.90;;
55114;SDS011;41010;53.252;5.786;2022-07-23T08:39:01;5.38;;;1.10;;
55114;SDS011;41010;53.252;5.786;2022-07-23T08:41:29;2.08;;;0.75;;
55114;SDS011;41010;53.252;5.786;2022-07-23T08:43:56;1.95;;;0.77;;
55114;SDS011;41010;53.252;5.786;2022-07-23T08:46:26;4.05;;;0.70;;
55114;SDS011;41010;53.252;5.786;2022-07-23T08:48:54;1.05;;;0.57;;
55114;SDS011;41010;53.252;5.786;2022-07-23T08:51:23;3.33;;;0.93;;
55114;SDS011;41010;53.252;5.786;2022-07-23T08:53:52;2.15;;;0.70;;
55114;SDS011;41010;53.252;5.786;2022-07-23T08:56:19;1.10;;;0.57;;
55114;SDS011;41010;53.252;5.786;2022-07-23T08:58:46;3.15;;;0.80;;
55114;SDS011;41010;53.252;5.786;2022-07-23T09:01:14;3.95;;;0.70;;
55114;SDS011;41010;53.252;5.786;2022-07-23T09:03:41;4.80;;;0.90;;
55114;SDS011;41010;53.252;5.786;2022-07-23T09:06:10;3.63;;;0.98;;
55114;SDS011;41010;53.252;5.786;2022-07-23T09:08:39;1.88;;;0.85;;
55114;SDS011;41010;53.252;5.786;2022-07-23T09:11:07;3.70;;;0.90;;
55114;SDS011;41010;53.252;5.786;2022-07-23T09:13:36;2.67;;;0.70;;
55114;SDS011;41010;53.252;5.786;2022-07-23T09:16:05;1.55;;;0.70;;
55114;SDS011;41010;53.252;5.786;2022-07-23T09:18:34;0.95;;;0.68;;
55114;SDS011;41010;53.252;5.786;2022-07-23T09:21:10;2.67;;;0.80;;
55114;SDS011;41010;53.252;5.786;2022-07-23T09:23:39;3.35;;;0.90;;
55114;SDS011;41010;53.252;5.786;2022-07-23T09:26:17;1.27;;;0.60;;
55114;SDS011;41010;53.252;5.786;2022-07-23T09:28:49;3.70;;;0.77;;
55114;SDS011;41010;53.252;5.786;2022-07-23T09:31:17;2.05;;;0.77;;
55114;SDS011;41010;53.252;5.786;2022-07-23T09:33:44;1.90;;;0.68;;
55114;SDS011;41010;53.252;5.786;2022-07-23T09:36:12;3.33;;;0.90;;
55114;SDS011;41010;53.252;5.786;2022-07-23T09:38:48;2.25;;;0.70;;
55114;SDS011;41010;53.252;5.786;2022-07-23T09:41:16;2.05;;;0.68;;
55114;SDS011;41010;53.252;5.786;2022-07-23T09:43:43;1.88;;;0.70;;
55114;SDS011;41010;53.252;5.786;2022-07-23T09:46:20;3.70;;;0.70;;
55114;SDS011;41010;53.252;5.786;2022-07-23T09:48:49;1.85;;;0.55;;
55114;SDS011;41010;53.252;5.786;2022-07-23T09:51:17;2.75;;;0.60;;
55114;SDS011;41010;53.252;5.786;2022-07-23T09:53:49;3.78;;;0.77;;
55114;SDS011;41010;53.252;5.786;2022-07-23T09:56:17;1.33;;;0.60;;
55114;SDS011;41010;53.252;5.786;2022-07-23T09:58:44;3.35;;;0.60;;
55114;SDS011;41010;53.252;5.786;2022-07-23T10:01:14;2.13;;;0.70;;
55114;SDS011;41010;53.252;5.786;2022-07-23T10:03:41;4.40;;;0.90;;
55114;SDS011;41010;53.252;5.786;2022-07-23T10:06:08;2.47;;;0.70;;
55114;SDS011;41010;53.252;5.786;2022-07-23T10:08:36;5.50;;;0.80;;
55114;SDS011;41010;53.252;5.786;2022-07-23T10:11:07;1.50;;;0.68;;
55114;SDS011;41010;53.252;5.786;2022-07-23T10:13:35;1.25;;;0.60;;
55114;SDS011;41010;53.252;5.786;2022-07-23T10:16:18;3.38;;;0.73;;
55114;SDS011;41010;53.252;5.786;2022-07-23T10:18:45;3.92;;;0.93;;
55114;SDS011;41010;53.252;5.786;2022-07-23T10:21:16;1.95;;;0.60;;
55114;SDS011;41010;53.252;5.786;2022-07-23T10:23:45;2.03;;;0.80;;
55114;SDS011;41010;53.252;5.786;2022-07-23T10:26:17;1.75;;;0.50;;
55114;SDS011;41010;53.252;5.786;2022-07-23T10:28:50;2.92;;;0.70;;
55114;SDS011;41010;53.252;5.786;2022-07-23T10:31:26;3.08;;;0.70;;
55114;SDS011;41010;53.252;5.786;2022-07-23T10:33:56;3.05;;;0.75;;
55114;SDS011;41010;53.252;5.786;2022-07-23T10:36:27;3.90;;;0.70;;
55114;SDS011;41010;53.252;5.786;2022-07-23T10:38:57;1.27;;;0.57;;
55114;SDS011;41010;53.252;5.786;2022-07-23T10:41:33;2.53;;;0.70;;
55114;SDS011;41010;53.252;5.786;2022-07-23T10:44:08;1.55;;;0.60;;
55114;SDS011;41010;53.252;5.786;2022-07-23T10:46:35;3.67;;;0.70;;
55114;SDS011;41010;53.252;5.786;2022-07-23T10:54:40;2.63;;;0.82;;
55114;SDS011;41010;53.252;5.786;2022-07-23T10:57:09;3.72;;;0.80;;
55114;SDS011;41010;53.252;5.786;2022-07-23T11:02:23;1.88;;;0.65;;
55114;SDS011;41010;53.252;5.786;2022-07-23T11:04:51;2.75;;;0.77;;
55114;SDS011;41010;53.252;5.786;2022-07-23T11:07:19;1.80;;;0.60;;
55114;SDS011;41010;53.252;5.786;2022-07-23T11:09:46;1.52;;;0.57;;
55114;SDS011;41010;53.252;5.786;2022-07-23T11:12:34;2.30;;;0.80;;
55114;SDS011;41010;53.252;5.786;2022-07-23T11:15:03;3.88;;;0.80;;
55114;SDS011;41010;53.252;5.786;2022-07-23T11:17:31;2.95;;;0.85;;
55114;SDS011;41010;53.252;5.786;2022-07-23T11:22:49;2.70;;;0.95;;
55114;SDS011;41010;53.252;5.786;2022-07-23T11:25:29;2.47;;;0.77;;
55114;SDS011;41010;53.252;5.786;2022-07-23T11:28:08;2.90;;;0.80;;
55114;SDS011;41010;53.252;5.786;2022-07-23T11:30:39;2.08;;;0.80;;
55114;SDS011;41010;53.252;5.786;2022-07-23T11:33:17;1.85;;;0.70;;
55114;SDS011;41010;53.252;5.786;2022-07-23T11:35:45;1.98;;;0.82;;
55114;SDS011;41010;53.252;5.786;2022-07-23T11:38:13;4.68;;;0.70;;
55114;SDS011;41010;53.252;5.786;2022-07-23T11:40:41;3.53;;;0.80;;
55114;SDS011;41010;53.252;5.786;2022-07-23T11:43:10;2.78;;;0.60;;
55114;SDS011;41010;53.252;5.786;2022-07-23T11:45:38;1.88;;;0.88;;
55114;SDS011;41010;53.252;5.786;2022-07-23T11:48:06;3.40;;;0.80;;
55114;SDS011;41010;53.252;5.786;2022-07-23T11:50:33;2.63;;;1.10;;
55114;SDS011;41010;53.252;5.786;2022-07-23T11:53:01;2.20;;;0.80;;
55114;SDS011;41010;53.252;5.786;2022-07-23T11:55:28;2.30;;;0.90;;
55114;SDS011;41010;53.252;5.786;2022-07-23T11:57:55;2.45;;;0.85;;
55114;SDS011;41010;53.252;5.786;2022-07-23T12:00:28;1.67;;;0.77;;
55114;SDS011;41010;53.252;5.786;2022-07-23T12:02:56;1.38;;;0.80;;
55114;SDS011;41010;53.252;5.786;2022-07-23T12:05:26;2.28;;;0.90;;
55114;SDS011;41010;53.252;5.786;2022-07-23T12:07:54;1.13;;;0.77;;
55114;SDS011;41010;53.252;5.786;2022-07-23T12:10:22;1.88;;;0.90;;
55114;SDS011;41010;53.252;5.786;2022-07-23T12:12:50;3.10;;;0.82;;
55114;SDS011;41010;53.252;5.786;2022-07-23T12:15:18;2.78;;;1.10;;
55114;SDS011;41010;53.252;5.786;2022-07-23T12:17:49;2.08;;;0.95;;
55114;SDS011;41010;53.252;5.786;2022-07-23T12:20:17;3.35;;;1.08;;
55114;SDS011;41010;53.252;5.786;2022-07-23T12:22:46;1.67;;;0.80;;
55114;SDS011;41010;53.252;5.786;2022-07-23T12:25:14;3.38;;;1.08;;
55114;SDS011;41010;53.252;5.786;2022-07-23T12:27:42;2.10;;;0.82;;
55114;SDS011;41010;53.252;5.786;2022-07-23T12:30:19;2.45;;;0.90;;
55114;SDS011;41010;53.252;5.786;2022-07-23T12:32:49;4.20;;;1.00;;
55114;SDS011;41010;53.252;5.786;2022-07-23T12:35:17;2.05;;;0.90;;
55114;SDS011;41010;53.252;5.786;2022-07-23T12:37:44;1.33;;;0.90;;
55114;SDS011;41010;53.252;5.786;2022-07-23T12:40:19;2.78;;;1.02;;
55114;SDS011;41010;53.252;5.786;2022-07-23T12:42:46;2.70;;;0.90;;
55114;SDS011;41010;53.252;5.786;2022-07-23T12:45:14;2.80;;;1.02;;
55114;SDS011;41010;53.252;5.786;2022-07-23T12:47:59;3.92;;;1.10;;
55114;SDS011;41010;53.252;5.786;2022-07-23T12:50:32;2.60;;;0.80;;
55114;SDS011;41010;53.252;5.786;2022-07-23T12:53:10;4.38;;;1.63;;
55114;SDS011;41010;53.252;5.786;2022-07-23T12:55:37;7.10;;;1.92;;
55114;SDS011;41010;53.252;5.786;2022-07-23T12:58:09;2.78;;;1.40;;
55114;SDS011;41010;53.252;5.786;2022-07-23T13:00:57;2.97;;;1.23;;
55114;SDS011;41010;53.252;5.786;2022-07-23T13:03:26;4.35;;;1.30;;
55114;SDS011;41010;53.252;5.786;2022-07-23T13:05:54;1.90;;;1.20;;
55114;SDS011;41010;53.252;5.786;2022-07-23T13:08:24;3.65;;;1.10;;
55114;SDS011;41010;53.252;5.786;2022-07-23T13:10:51;4.80;;;1.40;;
55114;SDS011;41010;53.252;5.786;2022-07-23T13:13:21;3.92;;;1.30;;
55114;SDS011;41010;53.252;5.786;2022-07-23T13:15:49;3.05;;;1.10;;
55114;SDS011;41010;53.252;5.786;2022-07-23T13:18:17;2.70;;;0.98;;
55114;SDS011;41010;53.252;5.786;2022-07-23T13:20:46;4.85;;;1.40;;
55114;SDS011;41010;53.252;5.786;2022-07-23T13:23:14;4.82;;;1.23;;
55114;SDS011;41010;53.252;5.786;2022-07-23T13:25:41;2.42;;;1.10;;
55114;SDS011;41010;53.252;5.786;2022-07-23T13:28:08;2.60;;;1.30;;
55114;SDS011;41010;53.252;5.786;2022-07-23T13:30:35;2.38;;;1.30;;
55114;SDS011;41010;53.252;5.786;2022-07-23T13:33:03;2.90;;;1.20;;
55114;SDS011;41010;53.252;5.786;2022-07-23T13:35:31;4.20;;;1.38;;
55114;SDS011;41010;53.252;5.786;2022-07-23T13:37:59;2.63;;;1.35;;
55114;SDS011;41010;53.252;5.786;2022-07-23T13:40:26;3.55;;;1.80;;
55114;SDS011;41010;53.252;5.786;2022-07-23T13:42:54;3.17;;;1.40;;
55114;SDS011;41010;53.252;5.786;2022-07-23T13:45:21;2.67;;;1.23;;
55114;SDS011;41010;53.252;5.786;2022-07-23T13:47:48;2.65;;;1.50;;
55114;SDS011;41010;53.252;5.786;2022-07-23T13:50:15;3.38;;;1.77;;
55114;SDS011;41010;53.252;5.786;2022-07-23T13:52:43;3.53;;;1.50;;
55114;SDS011;41010;53.252;5.786;2022-07-23T13:55:11;2.88;;;1.45;;
55114;SDS011;41010;53.252;5.786;2022-07-23T13:57:38;2.65;;;1.58;;
55114;SDS011;41010;53.252;5.786;2022-07-23T14:00:06;2.60;;;1.20;;
55114;SDS011;41010;53.252;5.786;2022-07-23T14:02:35;3.15;;;1.60;;
55114;SDS011;41010;53.252;5.786;2022-07-23T14:05:03;2.97;;;1.52;;
55114;SDS011;41010;53.252;5.786;2022-07-23T14:07:30;1.88;;;1.38;;
55114;SDS011;41010;53.252;5.786;2022-07-23T14:09:58;3.42;;;1.30;;
55114;SDS011;41010;53.252;5.786;2022-07-23T14:12:26;2.65;;;1.65;;
55114;SDS011;41010;53.252;5.786;2022-07-23T14:14:53;4.07;;;1.80;;
55114;SDS011;41010;53.252;5.786;2022-07-23T14:17:21;3.65;;;1.65;;
55114;SDS011;41010;53.252;5.786;2022-07-23T14:19:48;4.22;;;1.80;;
55114;SDS011;41010;53.252;5.786;2022-07-23T14:22:15;3.25;;;1.92;;
55114;SDS011;41010;53.252;5.786;2022-07-23T14:24:42;4.43;;;1.85;;
55114;SDS011;41010;53.252;5.786;2022-07-23T14:27:10;4.80;;;1.98;;
55114;SDS011;41010;53.252;5.786;2022-07-23T14:29:38;3.22;;;1.90;;
55114;SDS011;41010;53.252;5.786;2022-07-23T14:32:06;7.70;;;2.08;;
55114;SDS011;41010;53.252;5.786;2022-07-23T14:34:33;4.07;;;1.65;;
55114;SDS011;41010;53.252;5.786;2022-07-23T14:37:00;3.25;;;1.88;;
55114;SDS011;41010;53.252;5.786;2022-07-23T14:39:28;3.65;;;1.67;;
55114;SDS011;41010;53.252;5.786;2022-07-23T14:41:55;4.05;;;1.83;;
55114;SDS011;41010;53.252;5.786;2022-07-23T14:44:23;7.28;;;1.70;;
55114;SDS011;41010;53.252;5.786;2022-07-23T14:46:51;4.05;;;1.52;;
55114;SDS011;41010;53.252;5.786;2022-07-23T14:49:19;3.55;;;1.70;;
55114;SDS011;41010;53.252;5.786;2022-07-23T14:51:47;5.53;;;2.00;;
55114;SDS011;41010;53.252;5.786;2022-07-23T14:54:14;3.65;;;2.00;;
55114;SDS011;41010;53.252;5.786;2022-07-23T14:56:41;3.10;;;2.00;;
55114;SDS011;41010;53.252;5.786;2022-07-23T14:59:08;2.83;;;2.00;;
55114;SDS011;41010;53.252;5.786;2022-07-23T15:01:36;5.07;;;1.80;;